createdAt,value
2019-03-27T00:03:04.148Z,97.631836
2019-03-27T00:08:26.854Z,98.815918
2019-03-27T00:13:50.233Z,99.023438
2019-03-27T00:19:13.723Z,99.127197
2019-03-27T00:24:37.053Z,98.87085
2019-03-27T00:29:59.714Z,98.352051
2019-03-27T00:35:22.837Z,98.309326
2019-03-27T00:40:46.467Z,98.205566
2019-03-27T00:46:09.072Z,98.455811
2019-03-27T00:51:31.833Z,98.76709
2019-03-27T00:56:54.512Z,98.931885
2019-03-27T01:02:18.141Z,99.139404
2019-03-27T01:07:40.810Z,99.34082
2019-03-27T01:13:03.558Z,99.859619
2019-03-27T01:18:26.314Z,99.993896
2019-03-27T01:23:49.089Z,99.993896
2019-03-27T01:29:13.172Z,99.993896
2019-03-27T01:34:35.870Z,99.993896
2019-03-27T01:39:58.582Z,99.993896
2019-03-27T01:45:21.505Z,99.993896
2019-03-27T01:50:45.674Z,99.993896
2019-03-27T01:56:08.453Z,99.993896
2019-03-27T02:01:31.111Z,99.993896
2019-03-27T02:06:53.817Z,99.993896
2019-03-27T02:12:16.485Z,99.993896
2019-03-27T02:17:39.165Z,99.993896
2019-03-27T02:23:02.956Z,99.993896
2019-03-27T02:28:25.684Z,99.963379
2019-03-27T02:33:48.473Z,99.993896
2019-03-27T02:39:11.234Z,99.993896
2019-03-27T02:44:33.889Z,99.993896
2019-03-27T02:49:56.789Z,99.993896
2019-03-27T02:55:19.595Z,99.993896
2019-03-27T03:00:42.274Z,99.993896
2019-03-27T03:06:05.450Z,99.993896
2019-03-27T03:11:28.136Z,99.993896
2019-03-27T03:16:50.912Z,99.993896
2019-03-27T03:22:14.670Z,99.993896
2019-03-27T03:27:38.377Z,99.993896
2019-03-27T03:33:01.054Z,99.993896
2019-03-27T03:38:24.699Z,99.993896
2019-03-27T03:43:47.922Z,99.993896
2019-03-27T03:49:11.552Z,99.993896
2019-03-27T03:54:34.962Z,99.993896
2019-03-27T03:59:57.638Z,99.993896
2019-03-27T04:05:20.779Z,99.993896
2019-03-27T04:10:43.979Z,99.993896
2019-03-27T04:16:06.794Z,99.993896
2019-03-27T04:21:30.577Z,99.993896
2019-03-27T04:26:53.258Z,99.993896
2019-03-27T04:32:16.162Z,99.993896
2019-03-27T04:37:40.172Z,99.993896
2019-03-27T04:43:03.229Z,99.993896
2019-03-27T04:48:26.112Z,99.993896
2019-03-27T04:53:48.833Z,99.993896
2019-03-27T04:59:11.691Z,99.993896
2019-03-27T05:04:34.727Z,99.993896
2019-03-27T05:09:57.504Z,99.993896
2019-03-27T05:15:20.404Z,99.993896
2019-03-27T05:20:43.249Z,99.993896
2019-03-27T05:26:06.054Z,99.993896
2019-03-27T05:31:28.724Z,99.993896
2019-03-27T05:36:51.470Z,99.993896
2019-03-27T05:42:14.333Z,99.993896
2019-03-27T05:47:37.074Z,99.993896
2019-03-27T05:52:59.749Z,99.993896
2019-03-27T05:58:22.521Z,99.993896
2019-03-27T06:03:45.243Z,99.993896
2019-03-27T06:09:08.013Z,99.993896
2019-03-27T06:14:30.718Z,99.993896
2019-03-27T06:19:53.465Z,99.993896
2019-03-27T06:25:17.139Z,99.993896
2019-03-27T06:30:39.859Z,99.993896
2019-03-27T06:36:02.518Z,99.993896
2019-03-27T06:41:25.208Z,99.993896
2019-03-27T06:46:47.922Z,99.993896
2019-03-27T06:52:10.662Z,99.993896
2019-03-27T06:57:33.526Z,99.993896
2019-03-27T07:02:56.137Z,99.34082
2019-03-27T07:08:18.861Z,99.035645
2019-03-27T07:13:41.535Z,98.468018
2019-03-27T07:19:04.297Z,98.486328
2019-03-27T07:24:26.968Z,97.143555
2019-03-27T07:29:49.744Z,96.990967
2019-03-27T07:35:12.574Z,96.105957
2019-03-27T07:40:35.465Z,96.685791
2019-03-27T07:45:58.106Z,96.844482
2019-03-27T07:51:20.775Z,95.855713
2019-03-27T07:56:43.507Z,95.605469
2019-03-27T08:02:06.154Z,95.562744
2019-03-27T08:07:28.829Z,94.842529
2019-03-27T08:12:51.549Z,94.903564
2019-03-27T08:18:14.234Z,92.651367
2019-03-27T08:23:36.935Z,91.021729
2019-03-27T08:28:59.528Z,88.659668
2019-03-27T08:34:22.234Z,87.689209
2019-03-27T08:39:44.898Z,89.892578
2019-03-27T08:45:07.558Z,85.247803
2019-03-27T08:50:30.225Z,80.407715
2019-03-27T08:55:52.918Z,85.925293
2019-03-27T09:01:15.564Z,83.911133
2019-03-27T09:06:38.356Z,84.527588
2019-03-27T09:12:01.033Z,86.456299
2019-03-27T09:17:23.888Z,82.269287
2019-03-27T09:22:47.816Z,84.771729
2019-03-27T09:28:10.597Z,78.69873
2019-03-27T09:33:33.214Z,81.884766
2019-03-27T09:38:55.930Z,79.516602
2019-03-27T09:44:18.607Z,77.325439
2019-03-27T09:49:49.195Z,79.656982
2019-03-27T09:55:05.164Z,74.768066
2019-03-27T10:00:27.839Z,81.707764
2019-03-27T10:05:50.513Z,77.429199
2019-03-27T10:11:13.207Z,76.678467
2019-03-27T10:16:35.937Z,77.874756
2019-03-27T10:21:58.620Z,77.429199
2019-03-27T10:27:21.272Z,72.650146
2019-03-27T10:32:43.972Z,72.003174
2019-03-27T10:38:06.659Z,69.616699
2019-03-27T10:43:29.351Z,69.555664
2019-03-27T10:48:53.117Z,66.424561
2019-03-27T10:54:14.781Z,65.826416
2019-03-27T10:59:37.471Z,65.856934
2019-03-27T11:05:00.351Z,69.995117
2019-03-27T11:10:22.827Z,67.303467
2019-03-27T11:15:45.638Z,65.765381
2019-03-27T11:21:08.318Z,66.693115
2019-03-27T11:26:31.029Z,65.405273
2019-03-27T11:31:53.846Z,61.572266
2019-03-27T11:37:16.588Z,59.100342
2019-03-27T11:42:39.255Z,63.116455
2019-03-27T11:48:01.958Z,57.208252
2019-03-27T11:53:24.706Z,56.854248
2019-03-27T11:58:47.457Z,56.726074
2019-03-27T12:04:10.209Z,62.011719
2019-03-27T12:09:33.028Z,59.47876
2019-03-27T12:14:55.698Z,62.823486
2019-03-27T12:20:21.978Z,60.498047
2019-03-27T12:25:44.785Z,56.085205
2019-03-27T12:31:07.481Z,58.227539
2019-03-27T12:36:31.154Z,62.854004
2019-03-27T12:41:53.842Z,59.277344
2019-03-27T12:47:16.775Z,59.143066
2019-03-27T12:52:39.433Z,61.993408
2019-03-27T12:58:02.084Z,63.134766
2019-03-27T13:03:25.736Z,62.872314
2019-03-27T13:08:49.539Z,59.442139
2019-03-27T13:14:11.116Z,52.331543
2019-03-27T13:19:33.853Z,55.145264
2019-03-27T13:24:56.599Z,55.200195
2019-03-27T13:30:19.363Z,57.25708
2019-03-27T13:35:42.005Z,60.089111
2019-03-27T13:41:04.694Z,59.295654
2019-03-27T13:46:27.365Z,56.5979
2019-03-27T13:51:50.079Z,58.630371
2019-03-27T13:57:12.784Z,61.456299
2019-03-27T14:02:35.424Z,57.952881
2019-03-27T14:07:58.221Z,58.154297
2019-03-27T14:13:21.784Z,60.479736
2019-03-27T14:18:44.508Z,62.62207
2019-03-27T14:24:07.268Z,60.534668
2019-03-27T14:29:29.913Z,63.568115
2019-03-27T14:34:53.894Z,63.873291
2019-03-27T14:40:15.362Z,61.37085
2019-03-27T14:45:38.042Z,62.158203
2019-03-27T14:51:00.716Z,61.138916
2019-03-27T14:56:23.917Z,58.465576
2019-03-27T15:01:46.692Z,61.706543
2019-03-27T15:07:09.433Z,57.800293
2019-03-27T15:12:33.030Z,61.090088
2019-03-27T15:17:55.776Z,60.534668
2019-03-27T15:23:18.645Z,65.2771
2019-03-27T15:28:41.298Z,62.011719
2019-03-27T15:34:04.941Z,60.070801
2019-03-27T15:39:27.602Z,64.355469
2019-03-27T15:44:50.493Z,65.539551
2019-03-27T15:50:13.217Z,61.761475
2019-03-27T15:55:36.892Z,66.967773
2019-03-27T16:00:59.796Z,63.397217
2019-03-27T16:06:22.546Z,63.092041
2019-03-27T16:11:45.214Z,62.683105
2019-03-27T16:17:13.466Z,64.648438
2019-03-27T16:22:31.274Z,65.368652
2019-03-27T16:27:55.959Z,66.082764
2019-03-27T16:33:18.624Z,65.673828
2019-03-27T16:38:41.261Z,65.368652
2019-03-27T16:44:04.062Z,64.886475
2019-03-27T16:49:26.755Z,66.827393
2019-03-27T16:54:49.414Z,66.827393
2019-03-27T17:00:12.086Z,67.779541
2019-03-27T17:05:34.762Z,69.519043
2019-03-27T17:10:58.399Z,67.980957
2019-03-27T17:16:21.146Z,69.140625
2019-03-27T17:21:43.772Z,69.342041
2019-03-27T17:27:06.585Z,69.549561
2019-03-27T17:32:29.348Z,69.445801
2019-03-27T17:37:52.098Z,69.244385
2019-03-27T17:43:14.795Z,70.263672
2019-03-27T17:48:37.459Z,72.30835
2019-03-27T17:54:00.223Z,73.571777
2019-03-27T17:59:23.950Z,74.389648
2019-03-27T18:04:46.770Z,72.546387
2019-03-27T18:10:09.540Z,75.006104
2019-03-27T18:15:32.316Z,74.627686
2019-03-27T18:20:55.034Z,73.876953
2019-03-27T18:26:17.714Z,72.753906
2019-03-27T18:31:40.401Z,73.468018
2019-03-27T18:37:03.477Z,75.244141
2019-03-27T18:42:27.664Z,75.140381
2019-03-27T18:47:50.379Z,75.45166
2019-03-27T18:53:13.227Z,76.678467
2019-03-27T18:58:36.007Z,75.45166
2019-03-27T19:03:58.787Z,77.392578
2019-03-27T19:09:21.870Z,77.392578
2019-03-27T19:14:44.554Z,77.392578
2019-03-27T19:20:07.458Z,77.392578
2019-03-27T19:25:30.235Z,78.723145
2019-03-27T19:30:52.971Z,78.210449
2019-03-27T19:36:15.656Z,78.210449
2019-03-27T19:41:38.426Z,79.071045
2019-03-27T19:47:02.111Z,79.992676
2019-03-27T19:52:25.235Z,79.888916
2019-03-27T19:57:48.065Z,80.194092
2019-03-27T20:03:10.979Z,80.297852
2019-03-27T20:08:33.801Z,81.768799
2019-03-27T20:13:57.270Z,81.872559
2019-03-27T20:19:20.014Z,82.177734
2019-03-27T20:24:42.902Z,81.463623
2019-03-27T20:30:07.161Z,82.281494
2019-03-27T20:35:29.861Z,82.281494
2019-03-27T20:40:52.611Z,81.256104
2019-03-27T20:46:24.684Z,80.950928
2019-03-27T20:51:39.037Z,81.152344
2019-03-27T20:57:01.834Z,81.054688
2019-03-27T21:02:24.609Z,81.80542
2019-03-27T21:07:47.395Z,82.421875
2019-03-27T21:13:10.442Z,81.604004
2019-03-27T21:18:33.148Z,82.116699
2019-03-27T21:23:57.046Z,82.769775
2019-03-27T21:29:20.043Z,83.282471
2019-03-27T21:34:44.043Z,84.820557
2019-03-27T21:40:06.869Z,84.307861
2019-03-27T21:45:32.075Z,84.204102
2019-03-27T21:50:52.309Z,84.002686
2019-03-27T21:56:15.020Z,84.448242
2019-03-27T22:01:38.624Z,85.168457
2019-03-27T22:07:01.384Z,85.620117
2019-03-27T22:12:24.116Z,86.236572
2019-03-27T22:17:47.746Z,85.925293
2019-03-27T22:23:11.172Z,86.029053
2019-03-27T22:28:33.893Z,87.463379
2019-03-27T22:33:56.728Z,87.298584
2019-03-27T22:39:19.430Z,85.412598
2019-03-27T22:44:42.167Z,85.412598
2019-03-27T22:50:07.808Z,86.376953
2019-03-27T22:55:27.616Z,87.506104
2019-03-27T23:00:50.387Z,89.190674
2019-03-27T23:06:13.141Z,89.294434
2019-03-27T23:11:35.879Z,90.570068
2019-03-27T23:16:58.758Z,91.125488
2019-03-27T23:22:21.490Z,92.358398
2019-03-27T23:27:44.259Z,93.328857
2019-03-27T23:33:07.038Z,93.945312
2019-03-27T23:38:29.824Z,94.665527
2019-03-27T23:43:52.462Z,95.080566
2019-03-27T23:49:15.371Z,95.330811
2019-03-27T23:54:38.059Z,95.739746
